Airfield :
LOGIN :

Register | Disclaimer

   EN    FR    IT 

 










Legend :    VFR   Marginal VFR   IFR   Intensive IFR   Very Intensive IFR
Visi :
Ceiling :
>= 8 km
>= 3000ft
5 to 8 km
1000 to 3000 ft
1500m to 5 km
500 to 1000 ft
800 to 1500m
200 to 500 ft
< 800m
< 200 ft
Symbols :   Thunderstorms  Fog  Heavy snow  Heavy precipitations  Wind > 20 kt
SIGMETs :     Misc.  Thunderstorms  Icing  Turbulence  Mountain Waves  Volcanic Ashes






- Airport Elevation : 102 ft
- IATA code : CNG


LFBG - Cognac

CURRENT METAR :
  • 301300Z AUTO VRB03KT 9999 FEW027 18/11 Q1025 NOSIG

EXPIRED METARs :
  • 301230Z AUTO VRB02KT 9999 FEW025 18/12 Q1025 NOSIG
  • 301200Z AUTO 12004KT 060V180 9999 FEW025 18/12 Q1025 NOSIG
  • 301130Z AUTO 13003KT 060V180 9999 3700 NSC 18/12 Q1026 NOSIG
  • 301100Z AUTO 13004KT 050V200 CAVOK 17/12 Q1026 NOSIG
  • 301030Z AUTO VRB03KT CAVOK 16/13 Q1026 NOSIG

TAF TAF LFBG
Valid from the 30 at 09:00 until the 31 at 09:00 UTC


300800Z 3009/3109 00000KT 0800 FG VV///
BECMG 3009/3010 12003KT 3000 BR SCT005
BECMG 3010/3011 CAVOK
BECMG 3022/3024 0800 FG VV///



MET'MAP, your aeronautical weather chart ! - Copyright ORBIFLY December 2007 - Disclaimer

ORBIFLY MET'MAP TEAM :

Programming & Development : Alexandra Zaïnal
Concept & original design : Baudouin d'Aumeries
Assistance for programming : Marc-Olivier Méhu
Technical & hardware support : Manuel Goepfert

Contact : metmap@orbifly.com




SOURCES & CREDITS :

   NOAA